Time;durP1;ratioP1;P1;durP2;ratioP2;P2;SDS_P1;SDS_P2;PMS_P1;PMS_P2;Temp;Humidity;BMP_temperature;BMP_pressure;BME280_temperature;BME280_humidity;BME280_pressure;Samples;Min_cycle;Max_cycle;Signal;HPM_P1;HPM_P2
2021/06/15 00:00:25;;;;;;;7.05;3.85;;;;;;;;;;8357237;28;20368;-66
2021/06/15 00:04:30;;;;;;;6.28;3.97;;;;;;;;;;8337179;28;20383;-66
2021/06/15 00:08:35;;;;;;;6.78;3.60;;;;;;;;;;8322823;28;20371;-67
2021/06/15 00:12:41;;;;;;;6.80;3.28;;;;;;;;;;8322318;28;20082;-66
2021/06/15 00:16:46;;;;;;;10.73;4.22;;;;;;;;;;8328399;28;20439;-66
2021/06/15 00:20:52;;;;;;;7.80;3.83;;;;;;;;;;8328534;28;20497;-66
2021/06/15 00:24:57;;;;;;;7.32;3.65;;;;;;;;;;8328287;28;20381;-66
2021/06/15 00:29:03;;;;;;;5.88;3.28;;;;;;;;;;8330043;28;20359;-67
2021/06/15 00:33:09;;;;;;;6.05;3.63;;;;;;;;;;8326039;28;20432;-66
2021/06/15 00:37:14;;;;;;;6.45;3.42;;;;;;;;;;8328151;28;20497;-67
2021/06/15 00:41:19;;;;;;;7.60;3.67;;;;;;;;;;8328968;28;20475;-66
2021/06/15 00:45:31;;;;;;;8.38;3.80;;;;;;;;;;8328751;28;20386;-66
2021/06/15 00:49:40;;;;;;;9.68;3.53;;;;;;;;;;8327700;28;20538;-66
2021/06/15 00:53:45;;;;;;;6.50;3.72;;;;;;;;;;8326490;28;20470;-68
2021/06/15 00:57:53;;;;;;;15.10;8.05;;;;;;;;;;8325172;28;20052;-66
2021/06/15 01:01:58;;;;;;;16.25;6.25;;;;;;;;;;8326610;28;20393;-67
2021/06/15 01:06:10;;;;;;;8.20;3.78;;;;;;;;;;8308200;28;20070;-67
2021/06/15 01:10:37;;;;;;;15.10;4.45;;;;;;;;;;8309953;28;20379;-66
2021/06/15 01:15:10;;;;;;;12.32;4.00;;;;;;;;;;8306959;28;20463;-66
2021/06/15 01:20:22;;;;;;;7.28;4.13;;;;;;;;;;8293164;28;20360;-67
2021/06/15 01:24:54;;;;;;;12.27;4.70;;;;;;;;;;8302377;28;20488;-66
2021/06/15 01:29:26;;;;;;;16.33;5.18;;;;;;;;;;8293512;28;20090;-66
2021/06/15 01:33:40;;;;;;;10.27;5.57;;;;;;;;;;8306260;28;20460;-66
2021/06/15 01:38:04;;;;;;;12.80;4.47;;;;;;;;;;8306677;28;20401;-66
2021/06/15 01:42:24;;;;;;;7.05;4.63;;;;;;;;;;8293854;28;20435;-66
2021/06/15 01:46:38;;;;;;;14.73;5.38;;;;;;;;;;8290593;28;20075;-66
2021/06/15 01:50:46;;;;;;;11.88;4.45;;;;;;;;;;8292299;28;20490;-67
2021/06/15 01:54:57;;;;;;;12.60;5.32;;;;;;;;;;8291406;28;20367;-66
2021/06/15 01:59:15;;;;;;;14.43;5.40;;;;;;;;;;8306973;28;20552;-67
2021/06/15 02:03:27;;;;;;;10.82;5.13;;;;;;;;;;8291421;28;20494;-69
2021/06/15 02:07:33;;;;;;;;;;;;;;;;;;8307196;28;20463;-66
2021/06/15 02:11:42;;;;;;;12.60;4.88;;;;;;;;;;8292456;28;20350;-66
2021/06/15 02:16:17;;;;;;;13.90;4.85;;;;;;;;;;8323811;28;20496;-68
2021/06/15 02:20:52;;;;;;;9.48;4.75;;;;;;;;;;8270413;28;20040;-66
2021/06/15 02:25:01;;;;;;;7.97;4.50;;;;;;;;;;8323344;28;20466;-69
2021/06/15 02:29:12;;;;;;;11.90;5.15;;;;;;;;;;8324296;28;20370;-68
2021/06/15 02:33:28;;;;;;;12.13;4.85;;;;;;;;;;8322943;28;20458;-68
2021/06/15 02:37:45;;;;;;;14.90;5.47;;;;;;;;;;8307454;28;20451;-69
2021/06/15 02:41:53;;;;;;;10.80;5.20;;;;;;;;;;8323036;28;20504;-69
2021/06/15 02:45:59;;;;;;;10.77;5.07;;;;;;;;;;8322435;28;20439;-68
2021/06/15 02:50:07;;;;;;;14.25;5.28;;;;;;;;;;8306540;28;20055;-69
2021/06/15 02:54:23;;;;;;;14.77;5.43;;;;;;;;;;8323291;28;20048;-69
2021/06/15 02:58:29;;;;;;;14.88;5.00;;;;;;;;;;8323269;28;20466;-69
2021/06/15 03:02:40;;;;;;;10.65;4.50;;;;;;;;;;8322420;28;20078;-68
2021/06/15 03:06:47;;;;;;;16.98;4.72;;;;;;;;;;8322208;28;20382;-69
2021/06/15 03:10:54;;;;;;;8.73;4.40;;;;;;;;;;8306020;28;20377;-69
2021/06/15 03:15:08;;;;;;;10.77;5.10;;;;;;;;;;8305518;28;20061;-69
2021/06/15 03:19:36;;;;;;;17.85;4.35;;;;;;;;;;8288135;28;20375;-68
2021/06/15 03:24:08;;;;;;;7.93;4.63;;;;;;;;;;8289656;28;20343;-68
2021/06/15 03:28:26;;;;;;;11.98;4.13;;;;;;;;;;8290456;28;20063;-68
2021/06/15 03:32:54;;;;;;;6.60;4.10;;;;;;;;;;8290849;28;20056;-68
2021/06/15 03:37:03;;;;;;;9.98;4.68;;;;;;;;;;8291410;28;20075;-68
2021/06/15 03:41:16;;;;;;;14.43;5.00;;;;;;;;;;8289007;28;20440;-68
2021/06/15 03:45:32;;;;;;;7.93;5.07;;;;;;;;;;8288206;28;20336;-68
2021/06/15 03:49:38;;;;;;;11.98;4.75;;;;;;;;;;8293160;28;20454;-68
2021/06/15 03:53:46;;;;;;;8.90;4.38;;;;;;;;;;8297429;28;20328;-68
2021/06/15 03:57:52;;;;;;;13.98;5.07;;;;;;;;;;8295427;28;20393;-67
2021/06/15 04:02:03;;;;;;;15.07;5.28;;;;;;;;;;8294362;28;20371;-67
2021/06/15 04:06:12;;;;;;;11.40;4.88;;;;;;;;;;8294492;28;20466;-67
2021/06/15 04:10:17;;;;;;;7.45;4.13;;;;;;;;;;8297317;28;20471;-67
2021/06/15 04:14:24;;;;;;;10.00;4.50;;;;;;;;;;8319255;28;20382;-67
2021/06/15 04:18:30;;;;;;;10.00;4.20;;;;;;;;;;8327805;28;20371;-68
2021/06/15 04:22:42;;;;;;;7.90;4.40;;;;;;;;;;8326464;28;20496;-68
2021/06/15 04:26:47;;;;;;;7.53;4.00;;;;;;;;;;8328079;28;20091;-68
2021/06/15 04:30:54;;;;;;;8.05;3.88;;;;;;;;;;8327682;28;20483;-68
2021/06/15 04:35:06;;;;;;;8.85;3.83;;;;;;;;;;8326397;28;20409;-69
2021/06/15 04:39:17;;;;;;;7.97;4.47;;;;;;;;;;8310542;28;20462;-68
2021/06/15 04:43:28;;;;;;;7.10;3.88;;;;;;;;;;8326732;28;20407;-68
2021/06/15 04:47:42;;;;;;;5.93;3.30;;;;;;;;;;8327498;28;20390;-67
2021/06/15 04:51:48;;;;;;;11.30;4.15;;;;;;;;;;8327211;28;20048;-69
2021/06/15 04:55:54;;;;;;;7.60;3.97;;;;;;;;;;8309479;28;20463;-68
2021/06/15 05:00:02;;;;;;;11.25;3.92;;;;;;;;;;8327297;28;20451;-68
2021/06/15 05:04:08;;;;;;;9.68;4.68;;;;;;;;;;8326413;28;20455;-67
2021/06/15 05:08:15;;;;;;;9.43;4.13;;;;;;;;;;8308888;28;20383;-68
2021/06/15 05:12:22;;;;;;;7.28;3.80;;;;;;;;;;8324275;28;20356;-68
2021/06/15 05:16:33;;;;;;;7.95;4.07;;;;;;;;;;8326419;28;20466;-68
2021/06/15 05:20:38;;;;;;;10.43;3.53;;;;;;;;;;8324952;28;20056;-70
2021/06/15 05:24:47;;;;;;;11.00;4.57;;;;;;;;;;8326592;28;20379;-68
2021/06/15 05:28:52;;;;;;;12.48;3.58;;;;;;;;;;8325968;28;20098;-68
2021/06/15 05:32:58;;;;;;;8.32;4.40;;;;;;;;;;8325945;28;20052;-68
2021/06/15 05:37:06;;;;;;;7.72;4.07;;;;;;;;;;8328392;28;20467;-68
2021/06/15 05:41:11;;;;;;;10.27;3.97;;;;;;;;;;8326993;28;20067;-68
2021/06/15 05:45:17;;;;;;;11.32;4.82;;;;;;;;;;8308810;28;20466;-68
2021/06/15 05:49:22;;;;;;;8.25;3.90;;;;;;;;;;8323992;28;20385;-68
2021/06/15 05:53:27;;;;;;;9.45;3.35;;;;;;;;;;8326346;28;20342;-68
2021/06/15 05:57:34;;;;;;;9.95;4.30;;;;;;;;;;8327094;28;20471;-70
2021/06/15 06:01:41;;;;;;;10.20;3.88;;;;;;;;;;8326360;28;20067;-66
2021/06/15 06:10:11;;;;;;;10.25;3.50;;;;;;;;;;8326745;28;20386;-68
2021/06/15 06:14:16;;;;;;;7.90;3.30;;;;;;;;;;8324387;28;20374;-67
2021/06/15 06:18:21;;;;;;;5.20;2.78;;;;;;;;;;8325226;28;20477;-66
2021/06/15 06:22:27;;;;;;;8.70;3.78;;;;;;;;;;8326219;28;20378;-66
2021/06/15 06:26:32;;;;;;;6.85;3.15;;;;;;;;;;8325881;28;20067;-66
2021/06/15 06:30:38;;;;;;;6.13;3.05;;;;;;;;;;8325766;28;20381;-67
2021/06/15 06:34:43;;;;;;;4.85;3.10;;;;;;;;;;8326200;28;20501;-66
2021/06/15 06:38:49;;;;;;;4.00;2.72;;;;;;;;;;8328740;28;20447;-66
2021/06/15 06:42:55;;;;;;;5.68;2.70;;;;;;;;;;8325419;28;20074;-66
2021/06/15 06:47:00;;;;;;;6.85;2.50;;;;;;;;;;8325602;28;20371;-66
2021/06/15 06:51:06;;;;;;;6.72;2.30;;;;;;;;;;8323959;28;20070;-67
2021/06/15 06:55:18;;;;;;;5.10;2.40;;;;;;;;;;8323989;28;20347;-66
2021/06/15 06:59:23;;;;;;;6.60;2.00;;;;;;;;;;8324335;28;20418;-67
2021/06/15 07:03:29;;;;;;;5.95;2.75;;;;;;;;;;8325337;28;20656;-66
2021/06/15 07:07:35;;;;;;;7.28;2.13;;;;;;;;;;8325092;28;20367;-67
2021/06/15 07:11:40;;;;;;;2.55;1.35;;;;;;;;;;8324036;28;20307;-67
2021/06/15 07:15:45;;;;;;;3.40;1.35;;;;;;;;;;8323488;28;20463;-67
2021/06/15 07:19:50;;;;;;;6.68;1.35;;;;;;;;;;8324432;28;20383;-67
2021/06/15 07:23:56;;;;;;;2.83;1.40;;;;;;;;;;8322919;28;20443;-66
2021/06/15 07:28:01;;;;;;;5.18;1.38;;;;;;;;;;8324410;28;20355;-67
2021/06/15 07:32:07;;;;;;;2.13;1.02;;;;;;;;;;8323158;28;20382;-66
2021/06/15 07:36:12;;;;;;;2.08;1.10;;;;;;;;;;8324375;28;20458;-66
2021/06/15 07:40:22;;;;;;;4.43;1.80;;;;;;;;;;8322456;28;20482;-68
2021/06/15 07:44:28;;;;;;;7.10;1.88;;;;;;;;;;8322004;28;20332;-67
2021/06/15 07:48:33;;;;;;;8.27;1.58;;;;;;;;;;8323389;28;20447;-66
2021/06/15 07:52:39;;;;;;;3.40;1.50;;;;;;;;;;8322523;28;20405;-67
2021/06/15 07:56:45;;;;;;;4.20;1.30;;;;;;;;;;8323576;28;20382;-67
2021/06/15 08:00:50;;;;;;;3.45;1.40;;;;;;;;;;8305130;28;20048;-66
2021/06/15 08:04:55;;;;;;;4.93;1.90;;;;;;;;;;8325344;28;20455;-68
2021/06/15 08:09:01;;;;;;;2.75;1.20;;;;;;;;;;8321297;28;20074;-67
2021/06/15 08:13:06;;;;;;;3.22;1.25;;;;;;;;;;8321540;28;20336;-67
2021/06/15 08:17:13;;;;;;;2.25;1.20;;;;;;;;;;8321366;28;20462;-67
2021/06/15 08:21:17;;;;;;;4.10;1.05;;;;;;;;;;8303901;28;20386;-67
2021/06/15 08:25:23;;;;;;;5.20;1.38;;;;;;;;;;8321546;28;20048;-67
2021/06/15 08:29:27;;;;;;;4.63;1.38;;;;;;;;;;8322584;28;20040;-68
2021/06/15 08:33:32;;;;;;;7.43;1.40;;;;;;;;;;8303776;28;20385;-66
2021/06/15 08:37:40;;;;;;;2.72;1.23;;;;;;;;;;8324519;28;20516;-66
2021/06/15 08:41:45;;;;;;;7.82;1.60;;;;;;;;;;8327450;28;20383;-67
2021/06/15 08:45:52;;;;;;;4.18;1.50;;;;;;;;;;8310828;28;20374;-67
2021/06/15 08:49:57;;;;;;;4.07;1.50;;;;;;;;;;8327376;28;20081;-67
2021/06/15 08:54:06;;;;;;;3.47;1.20;;;;;;;;;;8327315;28;20486;-70
2021/06/15 08:58:45;;;;;;;1.80;0.98;;;;;;;;;;8309475;28;20336;-67
2021/06/15 09:02:50;;;;;;;9.18;1.27;;;;;;;;;;8326159;28;20500;-67
2021/06/15 09:06:58;;;;;;;3.65;1.33;;;;;;;;;;8309279;28;20470;-67
2021/06/15 09:11:07;;;;;;;3.47;1.15;;;;;;;;;;8310491;28;20485;-68
2021/06/15 09:15:21;;;;;;;3.40;1.48;;;;;;;;;;8326693;28;20382;-67
2021/06/15 09:19:27;;;;;;;4.35;1.80;;;;;;;;;;8323946;28;20435;-67
2021/06/15 09:23:38;;;;;;;2.67;1.30;;;;;;;;;;8325136;28;20074;-66
2021/06/15 09:27:44;;;;;;;9.10;1.52;;;;;;;;;;8324796;28;20382;-67
2021/06/15 09:31:55;;;;;;;3.85;1.45;;;;;;;;;;8321612;28;20381;-67
2021/06/15 09:36:25;;;;;;;4.10;1.40;;;;;;;;;;8322415;28;20483;-67
2021/06/15 09:40:35;;;;;;;3.67;1.42;;;;;;;;;;8326485;28;20455;-67
2021/06/15 09:44:41;;;;;;;6.72;1.60;;;;;;;;;;8324859;28;20358;-66
2021/06/15 09:48:46;;;;;;;3.45;1.20;;;;;;;;;;8325099;28;20372;-66
2021/06/15 09:52:51;;;;;;;2.15;1.17;;;;;;;;;;8325728;28;20382;-67
2021/06/15 09:57:00;;;;;;;3.47;1.05;;;;;;;;;;8324824;28;20370;-67
2021/06/15 10:01:06;;;;;;;2.50;1.20;;;;;;;;;;8324606;28;20351;-67
2021/06/15 10:05:36;;;;;;;3.30;1.30;;;;;;;;;;8325957;28;20464;-67
2021/06/15 10:09:42;;;;;;;1.95;1.10;;;;;;;;;;8324667;28;20455;-66
2021/06/15 10:13:48;;;;;;;4.13;1.30;;;;;;;;;;8289077;28;20391;-66
2021/06/15 10:17:53;;;;;;;5.82;1.48;;;;;;;;;;8305313;28;20067;-66
2021/06/15 10:21:59;;;;;;;2.83;1.05;;;;;;;;;;8292545;28;20369;-67
2021/06/15 10:26:06;;;;;;;4.13;1.40;;;;;;;;;;8292879;28;20339;-67
2021/06/15 10:30:13;;;;;;;2.70;1.10;;;;;;;;;;8291014;28;20494;-67
2021/06/15 10:35:02;;;;;;;3.47;1.20;;;;;;;;;;8307806;28;20048;-66
2021/06/15 10:39:19;;;;;;;2.53;1.25;;;;;;;;;;8290162;28;20483;-66
2021/06/15 10:43:28;;;;;;;;;;;;;;;;;;8291601;28;20494;-66
2021/06/15 10:47:33;;;;;;;5.03;1.30;;;;;;;;;;8288451;28;20255;-67
2021/06/15 10:51:43;;;;;;;3.17;1.00;;;;;;;;;;8288779;28;20075;-67
2021/06/15 10:56:01;;;;;;;5.38;1.38;;;;;;;;;;8292770;28;20438;-67
2021/06/15 11:00:26;;;;;;;6.13;1.90;;;;;;;;;;8291052;28;20074;-67
2021/06/15 11:04:37;;;;;;;6.05;1.50;;;;;;;;;;8290236;28;20044;-67
2021/06/15 11:08:43;;;;;;;3.72;1.27;;;;;;;;;;8291130;28;20378;-70
2021/06/15 11:12:49;;;;;;;4.13;1.50;;;;;;;;;;8299179;28;20391;-67
2021/06/15 11:17:01;;;;;;;7.43;1.83;;;;;;;;;;8323698;28;20165;-66
2021/06/15 11:21:25;;;;;;;;;;;;;;;;;;8324407;28;20386;-67
2021/06/15 11:26:01;;;;;;;4.32;1.50;;;;;;;;;;8321663;28;20244;-66
2021/06/15 11:30:12;;;;;;;8.02;1.52;;;;;;;;;;8330472;28;20404;-67
2021/06/15 11:34:18;;;;;;;4.18;1.38;;;;;;;;;;8328359;28;20588;-66
2021/06/15 11:38:26;;;;;;;3.15;1.38;;;;;;;;;;8312477;28;20474;-67
2021/06/15 11:42:31;;;;;;;4.15;1.20;;;;;;;;;;8323033;28;20478;-66
2021/06/15 11:46:37;;;;;;;4.30;1.73;;;;;;;;;;8324141;28;20554;-67
2021/06/15 11:50:49;;;;;;;3.70;1.65;;;;;;;;;;8322222;28;20377;-68
2021/06/15 11:54:54;;;;;;;4.13;1.77;;;;;;;;;;8324661;28;20512;-68
2021/06/15 11:58:59;;;;;;;8.15;1.90;;;;;;;;;;8330933;28;20402;-69
2021/06/15 12:03:19;;;;;;;6.10;1.50;;;;;;;;;;8354903;28;20481;-68
2021/06/15 12:07:24;;;;;;;10.00;1.90;;;;;;;;;;8356485;28;20051;-69
2021/06/15 12:11:30;;;;;;;6.07;1.65;;;;;;;;;;8338058;28;20055;-69
2021/06/15 12:15:38;;;;;;;4.45;1.65;;;;;;;;;;8344214;28;20059;-68
2021/06/15 12:19:44;;;;;;;6.78;2.15;;;;;;;;;;8362336;28;20051;-69
2021/06/15 12:23:56;;;;;;;8.00;1.67;;;;;;;;;;8362005;28;20059;-68
2021/06/15 12:28:24;;;;;;;4.85;1.85;;;;;;;;;;8361494;28;20478;-70
2021/06/15 12:32:45;;;;;;;4.55;1.67;;;;;;;;;;8361501;28;20078;-69
2021/06/15 12:36:56;;;;;;;6.78;1.70;;;;;;;;;;8361721;28;20381;-68
2021/06/15 12:41:07;;;;;;;4.50;1.70;;;;;;;;;;8361445;28;20358;-67
2021/06/15 12:45:13;;;;;;;3.90;1.70;;;;;;;;;;8361851;28;20458;-68
2021/06/15 12:49:23;;;;;;;2.95;1.63;;;;;;;;;;8362161;28;20465;-68
2021/06/15 12:53:30;;;;;;;4.50;1.35;;;;;;;;;;8362033;28;20450;-68
2021/06/15 12:57:35;;;;;;;2.28;1.35;;;;;;;;;;8360894;28;20461;-68
2021/06/15 13:01:41;;;;;;;4.72;1.63;;;;;;;;;;8355948;28;21587;-68
2021/06/15 13:06:13;;;;;;;9.00;1.83;;;;;;;;;;8329776;28;20070;-68
2021/06/15 13:10:21;;;;;;;3.97;1.52;;;;;;;;;;8327173;28;20370;-69
2021/06/15 13:14:30;;;;;;;3.35;1.63;;;;;;;;;;8326009;28;20426;-68
2021/06/15 13:18:40;;;;;;;4.70;1.67;;;;;;;;;;8327181;28;20379;-68
2021/06/15 13:22:45;;;;;;;5.07;1.80;;;;;;;;;;8337162;28;20343;-68
2021/06/15 13:26:51;;;;;;;5.75;1.80;;;;;;;;;;8337410;28;20530;-68
2021/06/15 13:30:57;;;;;;;2.67;1.55;;;;;;;;;;8359905;28;20459;-68
2021/06/15 13:35:06;;;;;;;7.25;1.90;;;;;;;;;;8359128;28;20350;-68
2021/06/15 13:39:20;;;;;;;2.88;1.75;;;;;;;;;;8342516;28;20047;-67
2021/06/15 13:43:36;;;;;;;5.35;1.60;;;;;;;;;;8358399;28;20366;-69
2021/06/15 13:47:42;;;;;;;5.00;1.80;;;;;;;;;;8359059;28;20051;-68
2021/06/15 13:51:48;;;;;;;3.90;2.05;;;;;;;;;;8360387;28;20475;-68
2021/06/15 13:55:53;;;;;;;9.68;2.75;;;;;;;;;;8359371;28;20364;-68
2021/06/15 13:59:59;;;;;;;8.52;2.53;;;;;;;;;;8358854;28;20073;-70
2021/06/15 14:04:04;;;;;;;5.18;2.42;;;;;;;;;;8358527;28;20047;-69
2021/06/15 14:08:10;;;;;;;9.38;2.67;;;;;;;;;;8340965;28;20475;-69
2021/06/15 14:12:16;;;;;;;8.88;2.97;;;;;;;;;;8340033;28;20770;-69
2021/06/15 14:16:23;;;;;;;9.13;2.92;;;;;;;;;;8339142;28;20488;-68
2021/06/15 14:20:32;;;;;;;;;;;;;;;;;;8358837;28;20466;-69
2021/06/15 14:24:38;;;;;;;7.50;3.08;;;;;;;;;;8359335;28;20318;-67
2021/06/15 14:28:43;;;;;;;11.30;2.42;;;;;;;;;;8357749;28;20381;-68
2021/06/15 14:32:49;;;;;;;11.85;2.90;;;;;;;;;;8356986;28;20362;-69
2021/06/15 14:36:54;;;;;;;8.85;3.08;;;;;;;;;;8338379;28;20066;-69
2021/06/15 14:41:00;;;;;;;4.68;2.38;;;;;;;;;;8356641;28;20469;-68
2021/06/15 14:45:07;;;;;;;17.00;6.93;;;;;;;;;;8357256;28;20070;-68
2021/06/15 14:49:13;;;;;;;;;;;;;;;;;;8339249;28;20353;-68
2021/06/15 14:53:18;;;;;;;7.32;2.70;;;;;;;;;;8357016;28;20651;-69
2021/06/15 14:57:23;;;;;;;8.93;2.88;;;;;;;;;;8357424;28;20450;-68
2021/06/15 15:01:29;;;;;;;7.00;3.17;;;;;;;;;;8338719;28;20066;-68
2021/06/15 15:05:36;;;;;;;20.95;3.40;;;;;;;;;;8338659;28;20369;-69
2021/06/15 15:09:41;;;;;;;8.65;3.20;;;;;;;;;;8355643;28;20355;-68
2021/06/15 15:13:47;;;;;;;8.65;3.75;;;;;;;;;;8355875;28;20400;-68
2021/06/15 15:17:53;;;;;;;6.90;2.92;;;;;;;;;;8355814;28;20501;-68
2021/06/15 15:22:00;;;;;;;6.63;2.80;;;;;;;;;;8338502;28;20056;-68
2021/06/15 15:26:05;;;;;;;5.25;2.70;;;;;;;;;;8338286;28;20371;-68
2021/06/15 15:30:20;;;;;;;10.63;3.92;;;;;;;;;;8338706;28;20474;-68
2021/06/15 15:34:24;;;;;;;8.40;3.47;;;;;;;;;;8357566;28;20366;-68
2021/06/15 15:38:29;;;;;;;12.27;4.70;;;;;;;;;;8357944;28;20438;-68
2021/06/15 15:42:36;;;;;;;7.18;2.92;;;;;;;;;;8356898;28;20473;-68
2021/06/15 15:46:43;;;;;;;;;;;;;;;;;;8341574;28;20346;-68
2021/06/15 15:50:50;;;;;;;3.83;2.40;;;;;;;;;;8363296;28;20314;-69
2021/06/15 15:54:55;;;;;;;7.40;2.60;;;;;;;;;;8363003;28;20446;-68
2021/06/15 15:59:00;;;;;;;7.43;2.95;;;;;;;;;;8363635;28;20974;-69
2021/06/15 16:03:05;;;;;;;9.20;2.58;;;;;;;;;;8362829;28;20451;-68
2021/06/15 16:07:12;;;;;;;5.20;2.50;;;;;;;;;;8343643;28;20495;-68
2021/06/15 16:11:17;;;;;;;9.50;3.33;;;;;;;;;;8345935;28;20427;-68
2021/06/15 16:15:23;;;;;;;8.25;2.58;;;;;;;;;;8363051;28;20370;-67
2021/06/15 16:19:29;;;;;;;7.35;2.92;;;;;;;;;;8363797;28;20497;-68
2021/06/15 16:23:36;;;;;;;3.78;1.65;;;;;;;;;;8361964;28;20470;-69
2021/06/15 16:27:43;;;;;;;4.88;2.25;;;;;;;;;;8316891;28;20044;-69
2021/06/15 16:31:48;;;;;;;7.25;2.55;;;;;;;;;;8361456;28;20470;-69
2021/06/15 16:35:53;;;;;;;4.55;1.98;;;;;;;;;;8361998;28;20355;-68
2021/06/15 16:39:59;;;;;;;4.75;1.92;;;;;;;;;;8360295;28;20571;-68
2021/06/15 16:44:05;;;;;;;4.55;2.05;;;;;;;;;;8360414;28;20493;-68
2021/06/15 16:48:11;;;;;;;5.10;1.83;;;;;;;;;;8361550;28;20348;-68
2021/06/15 16:52:16;;;;;;;6.57;1.98;;;;;;;;;;8360554;28;20460;-67
2021/06/15 16:56:23;;;;;;;6.13;2.10;;;;;;;;;;8359937;28;20417;-67
2021/06/15 17:00:30;;;;;;;3.55;2.13;;;;;;;;;;8342940;28;20462;-68
2021/06/15 17:04:36;;;;;;;3.13;2.00;;;;;;;;;;8358306;28;20070;-67
2021/06/15 17:08:41;;;;;;;8.93;2.72;;;;;;;;;;8360874;28;20367;-68
2021/06/15 17:12:46;;;;;;;8.23;2.85;;;;;;;;;;8343002;28;20478;-67
2021/06/15 17:16:52;;;;;;;6.60;2.53;;;;;;;;;;8360108;28;20493;-68
2021/06/15 17:20:57;;;;;;;3.92;2.00;;;;;;;;;;8341393;28;20488;-68
2021/06/15 17:25:06;;;;;;;5.25;2.30;;;;;;;;;;8360290;28;20500;-68
2021/06/15 17:29:12;;;;;;;5.65;2.63;;;;;;;;;;8341609;28;20434;-68
2021/06/15 17:33:17;;;;;;;8.07;3.60;;;;;;;;;;8358773;28;20469;-68
2021/06/15 17:37:22;;;;;;;9.43;3.00;;;;;;;;;;8358649;28;20462;-69
2021/06/15 17:41:28;;;;;;;8.45;3.38;;;;;;;;;;8357985;28;20374;-67
2021/06/15 17:45:38;;;;;;;6.22;2.38;;;;;;;;;;8353281;28;20360;-67
2021/06/15 17:49:43;;;;;;;4.85;2.05;;;;;;;;;;8358203;28;20500;-67
2021/06/15 17:53:50;;;;;;;4.95;2.10;;;;;;;;;;8359343;28;20444;-68
2021/06/15 17:57:56;;;;;;;4.05;1.80;;;;;;;;;;8360756;28;20059;-69
2021/06/15 18:02:01;;;;;;;4.18;2.42;;;;;;;;;;8360068;28;20375;-67
2021/06/15 18:06:13;;;;;;;5.70;2.67;;;;;;;;;;8357929;28;20355;-67
2021/06/15 18:10:18;;;;;;;7.13;3.40;;;;;;;;;;8356271;28;20465;-68
2021/06/15 18:14:24;;;;;;;7.43;3.25;;;;;;;;;;8323495;28;20491;-69
2021/06/15 18:18:29;;;;;;;7.25;3.28;;;;;;;;;;8325091;28;20413;-69
2021/06/15 18:22:35;;;;;;;10.00;2.88;;;;;;;;;;8324680;28;20402;-69
2021/06/15 18:26:40;;;;;;;6.18;2.85;;;;;;;;;;8324082;28;20471;-69
2021/06/15 18:30:46;;;;;;;7.35;3.47;;;;;;;;;;8324478;28;20389;-69
2021/06/15 18:34:51;;;;;;;10.57;3.75;;;;;;;;;;8325511;28;20447;-67
2021/06/15 18:38:56;;;;;;;9.68;4.13;;;;;;;;;;8325622;28;20346;-69
2021/06/15 18:43:02;;;;;;;8.38;4.65;;;;;;;;;;8324387;28;20451;-67
2021/06/15 18:47:08;;;;;;;9.18;5.32;;;;;;;;;;8325620;28;20455;-69
2021/06/15 18:51:13;;;;;;;14.88;7.00;;;;;;;;;;8326220;28;20395;-69
2021/06/15 18:55:18;;;;;;;15.18;9.07;;;;;;;;;;8324539;28;20070;-67
2021/06/15 18:59:25;;;;;;;16.58;8.07;;;;;;;;;;8323850;28;20349;-68
2021/06/15 19:03:29;;;;;;;16.35;6.93;;;;;;;;;;8322678;28;20459;-68
2021/06/15 19:07:35;;;;;;;12.50;7.90;;;;;;;;;;8323232;28;20052;-68
2021/06/15 19:11:41;;;;;;;14.85;8.80;;;;;;;;;;8322756;28;20365;-68
2021/06/15 19:15:46;;;;;;;10.68;8.02;;;;;;;;;;8355633;28;20359;-67
2021/06/15 19:19:52;;;;;;;15.75;9.40;;;;;;;;;;8356102;28;20435;-69
2021/06/15 19:23:57;;;;;;;16.38;10.20;;;;;;;;;;8357005;28;20366;-68
2021/06/15 19:28:04;;;;;;;19.38;10.30;;;;;;;;;;8358229;28;20043;-67
2021/06/15 19:32:09;;;;;;;20.48;11.10;;;;;;;;;;8359716;28;20450;-69
2021/06/15 19:36:15;;;;;;;13.60;8.15;;;;;;;;;;8355598;28;20483;-69
2021/06/15 19:40:20;;;;;;;9.30;6.55;;;;;;;;;;8356110;28;20344;-69
2021/06/15 19:44:26;;;;;;;11.65;7.55;;;;;;;;;;8357867;28;20442;-68
2021/06/15 19:48:31;;;;;;;12.80;6.38;;;;;;;;;;8354996;28;20373;-68
2021/06/15 19:52:36;;;;;;;13.98;6.18;;;;;;;;;;8356858;28;20466;-68
2021/06/15 19:56:41;;;;;;;13.27;6.85;;;;;;;;;;8357411;28;20164;-68
2021/06/15 20:00:47;;;;;;;12.35;6.25;;;;;;;;;;8356431;28;20467;-68
2021/06/15 20:04:51;;;;;;;9.93;5.57;;;;;;;;;;8356980;28;20078;-68
2021/06/15 20:08:56;;;;;;;11.68;5.50;;;;;;;;;;8356582;28;20455;-68
2021/06/15 20:13:01;;;;;;;8.15;5.72;;;;;;;;;;8355446;28;20486;-68
2021/06/15 20:17:06;;;;;;;12.45;5.93;;;;;;;;;;8355526;28;20458;-70
2021/06/15 20:21:15;;;;;;;11.75;6.30;;;;;;;;;;8337881;28;20350;-68
2021/06/15 20:25:21;;;;;;;11.45;6.63;;;;;;;;;;8355756;28;20512;-68
2021/06/15 20:29:27;;;;;;;10.18;6.75;;;;;;;;;;8356798;28;20447;-68
2021/06/15 20:33:32;;;;;;;10.45;6.43;;;;;;;;;;8359089;28;20464;-67
2021/06/15 20:37:38;;;;;;;12.70;6.65;;;;;;;;;;8361912;28;20389;-68
2021/06/15 20:41:44;;;;;;;14.35;6.05;;;;;;;;;;8361563;28;20048;-68
2021/06/15 20:45:50;;;;;;;12.95;6.20;;;;;;;;;;8361135;28;20078;-68
2021/06/15 20:49:55;;;;;;;17.13;7.38;;;;;;;;;;8363741;28;20501;-68
2021/06/15 20:54:05;;;;;;;11.60;7.15;;;;;;;;;;8360374;28;20374;-68
2021/06/15 20:58:10;;;;;;;11.05;6.03;;;;;;;;;;8360785;28;20354;-68
2021/06/15 21:02:16;;;;;;;10.63;6.05;;;;;;;;;;8361061;28;20070;-68
2021/06/15 21:06:21;;;;;;;10.75;5.50;;;;;;;;;;8361209;28;20393;-69
2021/06/15 21:10:27;;;;;;;9.77;5.68;;;;;;;;;;8359688;28;20462;-68
2021/06/15 21:14:33;;;;;;;10.30;5.10;;;;;;;;;;8360496;28;20074;-69
2021/06/15 21:18:38;;;;;;;10.73;5.50;;;;;;;;;;8360258;28;20454;-68
2021/06/15 21:22:44;;;;;;;7.80;5.20;;;;;;;;;;8360945;28;20354;-68
2021/06/15 21:26:49;;;;;;;10.82;5.15;;;;;;;;;;8360318;28;20442;-69
2021/06/15 21:30:57;;;;;;;10.73;5.75;;;;;;;;;;8362459;28;20443;-68
2021/06/15 21:35:05;;;;;;;10.20;6.55;;;;;;;;;;8360486;28;20382;-67
2021/06/15 21:39:14;;;;;;;9.65;5.63;;;;;;;;;;8361834;28;20051;-69
2021/06/15 21:43:19;;;;;;;10.88;5.18;;;;;;;;;;8359437;28;20397;-68
2021/06/15 21:47:24;;;;;;;8.85;5.35;;;;;;;;;;8360967;28;20468;-69
2021/06/15 21:51:30;;;;;;;12.88;6.10;;;;;;;;;;8342603;28;20504;-68
2021/06/15 21:55:35;;;;;;;9.70;5.50;;;;;;;;;;8360987;28;20492;-68
2021/06/15 21:59:41;;;;;;;9.95;6.00;;;;;;;;;;8358943;28;20466;-68
2021/06/15 22:03:46;;;;;;;11.27;5.72;;;;;;;;;;8358993;28;20078;-69
2021/06/15 22:07:51;;;;;;;13.35;6.20;;;;;;;;;;8358799;28;20047;-68
2021/06/15 22:11:57;;;;;;;11.77;5.32;;;;;;;;;;8358699;28;20358;-68
2021/06/15 22:16:05;;;;;;;9.25;5.07;;;;;;;;;;8359727;28;20359;-68
2021/06/15 22:20:15;;;;;;;12.90;5.38;;;;;;;;;;8360084;28;20486;-68
2021/06/15 22:24:20;;;;;;;8.05;5.40;;;;;;;;;;8358539;28;20473;-68
2021/06/15 22:28:26;;;;;;;9.40;4.90;;;;;;;;;;8340269;28;20493;-69
2021/06/15 22:32:31;;;;;;;10.93;5.00;;;;;;;;;;8358745;28;20491;-68
2021/06/15 22:36:37;;;;;;;8.88;5.65;;;;;;;;;;8356958;28;20363;-68
2021/06/15 22:40:42;;;;;;;9.27;4.78;;;;;;;;;;8357561;28;20361;-69
2021/06/15 22:44:47;;;;;;;10.63;5.25;;;;;;;;;;8357942;28;20395;-68
2021/06/15 22:48:53;;;;;;;10.05;5.45;;;;;;;;;;8357478;28;20376;-70
2021/06/15 22:52:58;;;;;;;9.20;5.00;;;;;;;;;;8356252;28;20378;-68
2021/06/15 22:57:04;;;;;;;9.20;5.18;;;;;;;;;;8358354;28;20377;-69
2021/06/15 23:01:09;;;;;;;8.63;4.20;;;;;;;;;;8357598;28;20352;-68
2021/06/15 23:05:17;;;;;;;11.60;5.70;;;;;;;;;;8358280;28;20404;-68
2021/06/15 23:09:23;;;;;;;10.32;5.35;;;;;;;;;;8357006;28;20331;-68
2021/06/15 23:13:29;;;;;;;9.05;4.90;;;;;;;;;;8356366;28;20060;-68
2021/06/15 23:17:37;;;;;;;7.93;5.03;;;;;;;;;;8340452;28;20328;-70
2021/06/15 23:21:43;;;;;;;8.27;4.82;;;;;;;;;;8357013;28;20108;-69
2021/06/15 23:25:49;;;;;;;9.57;4.90;;;;;;;;;;8338687;28;20406;-69
2021/06/15 23:29:54;;;;;;;9.65;5.57;;;;;;;;;;8356490;28;20484;-68
2021/06/15 23:34:00;;;;;;;8.75;5.43;;;;;;;;;;8355795;28;20528;-68
2021/06/15 23:38:06;;;;;;;10.55;5.00;;;;;;;;;;8354920;28;20389;-68
2021/06/15 23:42:13;;;;;;;7.95;4.85;;;;;;;;;;8356861;28;20404;-68
2021/06/15 23:46:19;;;;;;;10.37;5.63;;;;;;;;;;8358274;28;20460;-69
2021/06/15 23:50:26;;;;;;;10.85;5.28;;;;;;;;;;8356805;28;20477;-69
2021/06/15 23:54:31;;;;;;;11.25;5.18;;;;;;;;;;8356879;28;20051;-68
2021/06/15 23:58:36;;;;;;;8.55;4.65;;;;;;;;;;8355846;28;20443;-69
